Terminal Aerodrome Forecast
Issued by NWS

Home | Current Version | Previous Version | Text Only | Print | Product List | Glossary On
Versions: 1 2 3 4 5 6 7 8 9 10 11 12 13 14 15 16 17
000
FTUS42 TJSJ 031740
TAFNCM
TAF
TNCM 031740Z 0318/0418 09014G24KT P6SM VCSH SCT020
      TEMPO 0318/0320 BKN020
     FM032300 09012KT P6SM VCSH FEW018 SCT050
     FM041330 08015KT P6SM SCT025=

USA.gov is the U.S. government's official web portal to all federal, state and local government web resources and services.